Acapulco Jet — IWUM — position and weather

sailwx.info

Track history (hours):
 
Tides and Currents Weather Stations Pressure Air Temp Water Temp Dewpoint Dewpoint Depression Visibility Wind Speed Wind Dir Waves Ship Positions

Acapulco Jet

Last reported at 2015-Jul-02 09:33 UTC. Time now 2015-Jul-02 09:51 UTC.
Position N 42°52' E 010°25'.

Length 35 m; draft 1.3 m.

Type: High speed craft. MMSI: 247050100.

Date/timePositionNaut miles runAvg speedWind from/ knotsBaromVisibWave heightAir tempDewpointWater temp
2015-Jul-02 09:33N 42°52' E 010°25'7 5.5
2015-Jul-02 08:15N 42°56' E 010°33'1316.1
2015-Jul-02 07:28N 42°49' E 010°19'13 6.4
2015-Jul-02 05:30N 42°56' E 010°33'7 0.6
2015-Jul-01 17:34N 42°53' E 010°25'1 1.0
2015-Jul-01 16:33N 42°52' E 010°25'7 5.3
2015-Jul-01 15:13N 42°56' E 010°33'1218.8
2015-Jul-01 14:33N 42°49' E 010°20'2 2.1
2015-Jul-01 13:34N 42°50' E 010°22'2 1.1
2015-Jul-01 11:23N 42°52' E 010°24'1 0.8
2015-Jul-01 09:33N 42°52' E 010°26'7 5.7
2015-Jul-01 08:18N 42°56' E 010°33'1213.5
2015-Jul-01 07:23N 42°49' E 010°20'5 0.3
2015-Jun-30 17:33N 42°52' E 010°24'8 6.2
2015-Jun-30 16:18N 42°56' E 010°34'1 0.6
2015-Jun-30 15:11N 42°56' E 010°33'1213.0
2015-Jun-30 14:15N 42°49' E 010°19'3 3.5
2015-Jun-30 13:32N 42°50' E 010°22'3 1.6
2015-Jun-30 11:33N 42°52' E 010°26'6 5.4
2015-Jun-30 10:31N 42°49' E 010°19'5 5.4
2015-Jun-30 09:33N 42°52' E 010°25'7 5.4
2015-Jun-30 08:16N 42°56' E 010°33'1214.2
2015-Jun-30 07:24N 42°49' E 010°19'12 6.0
2015-Jun-30 05:26N 42°55' E 010°33'7 0.5
2015-Jun-29 17:32N 42°52' E 010°25'2 1.9
2015-Jun-29 16:33N 42°53' E 010°28'6 1.9
2015-Jun-29 13:33N 42°49' E 010°21'4 2.2
2015-Jun-29 11:33N 42°52' E 010°26'1 0.3
2015-Jun-29 09:34N 42°52' E 010°25'7 4.9
2015-Jun-29 08:13N 42°55' E 010°33'1112.6
2015-Jun-29 07:20N 42°49' E 010°20'6 3.1
2015-Jun-29 05:17N 42°52' E 010°27'7 0.6
2015-Jun-28 18:04N 42°49' E 010°19'814.8
2015-Jun-28 17:33N 42°53' E 010°28'0 0.1
2015-Jun-28 15:04N 42°53' E 010°28'5 2.9
2015-Jun-28 13:30N 42°51' E 010°22'3 1.2
2015-Jun-28 11:27N 42°52' E 010°26'0 0.0
2015-Jun-28 09:33N 42°52' E 010°25'5 3.4
2015-Jun-28 08:10N 42°54' E 010°31'1011.3
2015-Jun-28 07:20N 42°49' E 010°20'12 6.5
2015-Jun-28 05:29N 42°56' E 010°33'6 0.5
2015-Jun-27 17:25N 42°52' E 010°27'1 1.0
2015-Jun-27 16:34N 42°52' E 010°26'7 5.0
2015-Jun-27 15:09N 42°56' E 010°33'1311.5
2015-Jun-27 14:03N 42°49' E 010°19'5 9.5
2015-Jun-27 13:32N 42°52' E 010°24'2 0.9
2015-Jun-27 11:34N 42°52' E 010°26'1 0.4
2015-Jun-27 09:34N 42°52' E 010°25'7 5.5
2015-Jun-27 08:15N 42°56' E 010°33'1216.9
2015-Jun-27 07:31N 42°49' E 010°19'11 5.1
2015-Jun-27 05:22N 42°54' E 010°32'1110.7
2015-Jun-27 04:21N 42°49' E 010°19'5 0.5
2015-Jun-26 17:25N 42°52' E 010°26'0 0.1
2015-Jun-26 16:33N 42°52' E 010°25'5 2.6
2015-Jun-26 14:33N 42°49' E 010°20'3 2.7
2015-Jun-26 13:33N 42°51' E 010°22'3 1.3
2015-Jun-26 11:33N 42°52' E 010°25'3 0.1
2015-Jun-25 13:30N 42°51' E 010°22'1 0.6
2015-Jun-25 11:21N 42°52' E 010°23'2 0.3
2015-Jun-25 05:11N 42°52' E 010°26'  
2015-Jun-22 11:33N 42°52' E 010°26'0 0.0
2015-Jun-22 09:34N 42°52' E 010°25'  
Track history (hours):
 
Tides and Currents Weather Stations Pressure Air Temp Water Temp Dewpoint Dewpoint Depression Visibility Wind Speed Wind Dir Waves Ship Positions

Acapulco Jet

Last reported at 2015-Jul-02 09:33 UTC. Time now 2015-Jul-02 09:51 UTC.
Position N 42°52' E 010°25'.

Length 35 m; draft 1.3 m.

Type: High speed craft. MMSI: 247050100.

Date/timePositionNaut miles runAvg speedWind from/ knotsBaromVisibWave heightAir tempDewpointWater temp
2015-Jul-02 09:33N 42°52' E 010°25'7 5.5
2015-Jul-02 08:15N 42°56' E 010°33'1316.1
2015-Jul-02 07:28N 42°49' E 010°19'13 6.4
2015-Jul-02 05:30N 42°56' E 010°33'7 0.6
2015-Jul-01 17:34N 42°53' E 010°25'1 1.0
2015-Jul-01 16:33N 42°52' E 010°25'7 5.3
2015-Jul-01 15:13N 42°56' E 010°33'1218.8
2015-Jul-01 14:33N 42°49' E 010°20'2 2.1
2015-Jul-01 13:34N 42°50' E 010°22'2 1.1
2015-Jul-01 11:23N 42°52' E 010°24'1 0.8
2015-Jul-01 09:33N 42°52' E 010°26'7 5.7
2015-Jul-01 08:18N 42°56' E 010°33'1213.5
2015-Jul-01 07:23N 42°49' E 010°20'5 0.3
2015-Jun-30 17:33N 42°52' E 010°24'8 6.2
2015-Jun-30 16:18N 42°56' E 010°34'1 0.6
2015-Jun-30 15:11N 42°56' E 010°33'1213.0
2015-Jun-30 14:15N 42°49' E 010°19'3 3.5
2015-Jun-30 13:32N 42°50' E 010°22'3 1.6
2015-Jun-30 11:33N 42°52' E 010°26'6 5.4
2015-Jun-30 10:31N 42°49' E 010°19'5 5.4
2015-Jun-30 09:33N 42°52' E 010°25'7 5.4
2015-Jun-30 08:16N 42°56' E 010°33'1214.2
2015-Jun-30 07:24N 42°49' E 010°19'12 6.0
2015-Jun-30 05:26N 42°55' E 010°33'7 0.5
2015-Jun-29 17:32N 42°52' E 010°25'2 1.9
2015-Jun-29 16:33N 42°53' E 010°28'6 1.9
2015-Jun-29 13:33N 42°49' E 010°21'4 2.2
2015-Jun-29 11:33N 42°52' E 010°26'1 0.3
2015-Jun-29 09:34N 42°52' E 010°25'7 4.9
2015-Jun-29 08:13N 42°55' E 010°33'1112.6
2015-Jun-29 07:20N 42°49' E 010°20'6 3.1
2015-Jun-29 05:17N 42°52' E 010°27'7 0.6
2015-Jun-28 18:04N 42°49' E 010°19'814.8
2015-Jun-28 17:33N 42°53' E 010°28'0 0.1
2015-Jun-28 15:04N 42°53' E 010°28'5 2.9
2015-Jun-28 13:30N 42°51' E 010°22'3 1.2
2015-Jun-28 11:27N 42°52' E 010°26'0 0.0
2015-Jun-28 09:33N 42°52' E 010°25'5 3.4
2015-Jun-28 08:10N 42°54' E 010°31'1011.3
2015-Jun-28 07:20N 42°49' E 010°20'12 6.5
2015-Jun-28 05:29N 42°56' E 010°33'6 0.5
2015-Jun-27 17:25N 42°52' E 010°27'1 1.0
2015-Jun-27 16:34N 42°52' E 010°26'7 5.0
2015-Jun-27 15:09N 42°56' E 010°33'1311.5
2015-Jun-27 14:03N 42°49' E 010°19'5 9.5
2015-Jun-27 13:32N 42°52' E 010°24'2 0.9
2015-Jun-27 11:34N 42°52' E 010°26'1 0.4
2015-Jun-27 09:34N 42°52' E 010°25'7 5.5
2015-Jun-27 08:15N 42°56' E 010°33'1216.9
2015-Jun-27 07:31N 42°49' E 010°19'11 5.1
2015-Jun-27 05:22N 42°54' E 010°32'1110.7
2015-Jun-27 04:21N 42°49' E 010°19'5 0.5
2015-Jun-26 17:25N 42°52' E 010°26'0 0.1
2015-Jun-26 16:33N 42°52' E 010°25'5 2.6
2015-Jun-26 14:33N 42°49' E 010°20'3 2.7
2015-Jun-26 13:33N 42°51' E 010°22'3 1.3
2015-Jun-26 11:33N 42°52' E 010°25'3 0.1
2015-Jun-25 13:30N 42°51' E 010°22'1 0.6
2015-Jun-25 11:21N 42°52' E 010°23'2 0.3
2015-Jun-25 05:11N 42°52' E 010°26'  
2015-Jun-22 11:33N 42°52' E 010°26'0 0.0
2015-Jun-22 09:34N 42°52' E 010°25'  

Dump ship's entire track history